Time;durP1;ratioP1;P1;durP2;ratioP2;P2;SDS_P1;SDS_P2;PMS_P1;PMS_P2;Temp;Humidity;BMP_temperature;BMP_pressure;BME280_temperature;BME280_humidity;BME280_pressure;Samples;Min_cycle;Max_cycle;Signal;HPM_P1;HPM_P2
2023/06/12 00:01:08;;;;;;;7.70;7.20;;;20.10;99.90;;;;;;5019855;28;20442;-76
2023/06/12 00:03:36;;;;;;;8.10;7.50;;;20.10;99.90;;;;;;5020674;28;20956;-77
2023/06/12 00:06:05;;;;;;;8.10;7.50;;;20.00;99.90;;;;;;5019911;28;20459;-77
2023/06/12 00:08:41;;;;;;;7.40;6.90;;;19.90;99.90;;;;;;5027314;28;20458;-76
2023/06/12 00:11:13;;;;;;;7.50;7.00;;;19.90;99.90;;;;;;5036804;28;20454;-78
2023/06/12 00:13:42;;;;;;;8.67;8.07;;;19.80;99.90;;;;;;5039519;28;20479;-77
2023/06/12 00:16:13;;;;;;;8.10;7.50;;;19.70;99.90;;;;;;5038715;28;20509;-77
2023/06/12 00:18:45;;;;;;;9.07;8.23;;;19.70;99.90;;;;;;5040021;28;20411;-78
2023/06/12 00:21:14;;;;;;;8.07;7.37;;;19.60;99.90;;;;;;5040178;28;20446;-77
2023/06/12 00:23:46;;;;;;;7.47;6.87;;;19.60;99.90;;;;;;5038573;28;20914;-78
2023/06/12 00:26:14;;;;;;;9.10;8.30;;;19.60;99.90;;;;;;5038722;28;20767;-77
2023/06/12 00:28:45;;;;;;;8.07;7.37;;;19.60;99.90;;;;;;5038039;28;20466;-76
2023/06/12 00:31:33;;;;;;;8.60;7.90;;;19.60;99.90;;;;;;5037461;28;20462;-78
2023/06/12 00:34:01;;;;;;;8.93;8.20;;;19.60;99.90;;;;;;5037720;28;20474;-77
2023/06/12 00:36:34;;;;;;;8.40;7.77;;;19.50;99.90;;;;;;5038309;28;20478;-78
2023/06/12 00:39:05;;;;;;;8.20;7.60;;;19.50;99.90;;;;;;5037328;28;20485;-78
2023/06/12 00:41:41;;;;;;;7.53;7.03;;;19.40;99.90;;;;;;5039880;28;20524;-77
2023/06/12 00:44:14;;;;;;;8.43;7.73;;;19.40;99.90;;;;;;5042920;28;20461;-76
2023/06/12 00:46:44;;;;;;;8.43;7.70;;;19.30;99.90;;;;;;5043367;28;20450;-75
2023/06/12 00:49:13;;;;;;;8.50;7.90;;;19.30;99.90;;;;;;5043712;28;20453;-77
2023/06/12 00:51:43;;;;;;;9.07;8.37;;;19.30;99.90;;;;;;5039933;28;20497;-77
2023/06/12 00:54:17;;;;;;;9.10;8.30;;;19.30;99.90;;;;;;5039832;28;20474;-77
2023/06/12 00:56:46;;;;;;;8.00;7.40;;;19.20;99.90;;;;;;5039029;28;20504;-77
2023/06/12 00:59:24;;;;;;;8.10;7.40;;;19.10;99.90;;;;;;5040359;28;20931;-76
2023/06/12 01:01:53;;;;;;;8.73;7.93;;;19.10;99.90;;;;;;5040986;28;20476;-77
2023/06/12 01:04:21;;;;;;;7.67;7.07;;;19.10;99.90;;;;;;5042137;28;20446;-77
2023/06/12 01:06:58;;;;;;;7.83;7.33;;;19.10;99.90;;;;;;5040723;28;20443;-77
2023/06/12 01:09:41;;;;;;;8.70;8.00;;;19.00;99.90;;;;;;5040373;28;20455;-77
2023/06/12 01:12:10;;;;;;;8.13;7.50;;;19.00;99.90;;;;;;5036651;28;20485;-77
2023/06/12 01:14:37;;;;;;;8.27;7.50;;;18.90;99.90;;;;;;5038852;28;20541;-77
2023/06/12 01:17:05;;;;;;;8.90;8.20;;;19.00;99.90;;;;;;5040238;28;20489;-77
2023/06/12 01:19:33;;;;;;;8.10;7.60;;;19.00;99.90;;;;;;5040333;28;20823;-76
2023/06/12 01:22:08;;;;;;;9.40;8.63;;;18.90;99.90;;;;;;5040309;28;20470;-76
2023/06/12 01:25:05;;;;;;;8.83;8.10;;;19.10;99.90;;;;;;5041872;28;20813;-78
2023/06/12 01:27:51;;;;;;;8.70;7.90;;;18.80;99.90;;;;;;5041747;28;20529;-76
2023/06/12 01:30:54;;;;;;;8.87;8.07;;;18.80;99.90;;;;;;5041839;28;20443;-76
2023/06/12 01:33:30;;;;;;;8.57;7.97;;;18.80;99.90;;;;;;5043314;28;20515;-77
2023/06/12 01:36:01;;;;;;;8.60;8.00;;;18.70;99.90;;;;;;5042699;28;20437;-77
2023/06/12 01:38:33;;;;;;;9.20;8.30;;;18.70;99.90;;;;;;5043233;28;20500;-76
2023/06/12 01:41:03;;;;;;;9.33;8.47;;;18.70;99.90;;;;;;5043288;28;20847;-76
2023/06/12 01:43:30;;;;;;;9.43;8.73;;;18.60;99.90;;;;;;5042988;28;20458;-77
2023/06/12 01:45:58;;;;;;;9.10;8.40;;;18.60;99.90;;;;;;5041148;28;20457;-77
2023/06/12 01:48:30;;;;;;;8.43;7.83;;;18.60;99.90;;;;;;5039657;28;20526;-77
2023/06/12 01:51:02;;;;;;;9.83;9.03;;;18.60;99.90;;;;;;5037578;28;20470;-77
2023/06/12 01:53:32;;;;;;;10.40;9.50;;;18.60;99.90;;;;;;5037087;28;20474;-77
2023/06/12 01:56:00;;;;;;;9.50;8.70;;;18.60;99.90;;;;;;5040547;28;20917;-76
2023/06/12 01:58:38;;;;;;;9.63;8.83;;;18.50;99.90;;;;;;5049998;28;20547;-77
2023/06/12 02:01:08;;;;;;;9.57;8.97;;;18.60;99.90;;;;;;5051121;28;20446;-77
2023/06/12 02:03:45;;;;;;;9.40;8.70;;;18.60;99.90;;;;;;5049829;28;20469;-77
2023/06/12 02:06:15;;;;;;;10.03;9.30;;;18.60;99.90;;;;;;5045073;28;20454;-76
2023/06/12 02:08:45;;;;;;;9.53;8.73;;;18.50;99.90;;;;;;5044717;28;20521;-75
2023/06/12 02:14:23;;;;;;;9.00;8.30;;;18.50;99.90;;;;;;5042860;28;20430;-77
2023/06/12 02:16:56;;;;;;;9.03;8.13;;;18.40;99.90;;;;;;5046901;28;20491;-76
2023/06/12 02:19:29;;;;;;;9.40;8.50;;;18.40;99.90;;;;;;5047097;28;20462;-76
2023/06/12 02:22:06;;;;;;;9.70;8.87;;;18.40;99.90;;;;;;5046389;28;20470;-77
2023/06/12 02:24:35;;;;;;;9.20;8.50;;;18.40;99.90;;;;;;5045517;28;20461;-77
2023/06/12 02:27:03;;;;;;;9.00;8.40;;;18.40;99.90;;;;;;5045741;28;20423;-76
2023/06/12 02:29:31;;;;;;;8.17;7.57;;;18.30;99.90;;;;;;5047768;28;20451;-76
2023/06/12 02:32:07;;;;;;;9.77;8.87;;;18.30;99.90;;;;;;5049724;28;20574;-77
2023/06/12 02:34:37;;;;;;;9.00;8.40;;;18.30;99.90;;;;;;5049938;28;20441;-77
2023/06/12 02:37:14;;;;;;;9.30;8.60;;;18.20;99.90;;;;;;5048859;28;20764;-77
2023/06/12 02:39:47;;;;;;;9.83;9.13;;;18.20;99.90;;;;;;5048315;28;20472;-76
2023/06/12 02:42:18;;;;;;;9.23;8.53;;;18.20;99.90;;;;;;5047862;28;20561;-77
2023/06/12 02:44:50;;;;;;;8.63;8.03;;;18.10;99.90;;;;;;5049272;28;20443;-77
2023/06/12 02:47:20;;;;;;;8.53;7.93;;;18.10;99.90;;;;;;5046681;28;20465;-77
2023/06/12 02:49:53;;;;;;;8.23;7.53;;;18.00;99.90;;;;;;5045815;28;20443;-77
2023/06/12 02:52:22;;;;;;;9.30;8.23;;;18.00;99.90;;;;;;5044836;28;20467;-77
2023/06/12 02:54:50;;;;;;;8.77;8.07;;;18.00;99.90;;;;;;5044481;28;20430;-77
2023/06/12 02:57:21;;;;;;;9.27;8.50;;;18.00;99.90;;;;;;5047280;28;20476;-77
2023/06/12 02:59:49;;;;;;;8.67;8.00;;;17.90;99.90;;;;;;5048437;28;20514;-77
2023/06/12 03:02:17;;;;;;;9.07;8.33;;;17.90;99.90;;;;;;5042593;28;20472;-77
2023/06/12 03:04:46;;;;;;;9.30;8.50;;;17.90;99.90;;;;;;5027755;28;20428;-77
2023/06/12 03:07:16;;;;;;;8.43;7.80;;;17.80;99.90;;;;;;5023811;28;20441;-76
2023/06/12 03:09:44;;;;;;;9.13;8.33;;;17.80;99.90;;;;;;5023431;28;20447;-77
2023/06/12 03:12:15;;;;;;;9.50;8.60;;;17.80;99.90;;;;;;5021205;28;20474;-77
2023/06/12 03:14:44;;;;;;;10.30;9.40;;;17.80;99.90;;;;;;5020119;28;20459;-77
2023/06/12 03:17:12;;;;;;;9.60;8.93;;;17.80;99.90;;;;;;5018648;28;20455;-77
2023/06/12 03:19:44;;;;;;;8.73;8.13;;;17.70;99.90;;;;;;5024723;28;20453;-77
2023/06/12 03:22:12;;;;;;;9.23;8.63;;;17.70;99.90;;;;;;5059915;28;20539;-77
2023/06/12 03:24:44;;;;;;;8.40;7.80;;;17.70;99.90;;;;;;5061198;28;20880;-76
2023/06/12 03:27:14;;;;;;;8.93;8.13;;;17.60;99.90;;;;;;5059676;28;20476;-77
2023/06/12 03:29:41;;;;;;;9.23;8.53;;;17.60;99.90;;;;;;5059579;28;20507;-77
2023/06/12 03:32:10;;;;;;;9.00;8.30;;;17.60;99.90;;;;;;5058417;28;20466;-76
2023/06/12 03:34:37;;;;;;;9.43;8.70;;;17.60;99.90;;;;;;5051239;28;20462;-76
2023/06/12 03:37:06;;;;;;;8.60;7.70;;;17.60;99.90;;;;;;5036237;28;20462;-77
2023/06/12 03:39:33;;;;;;;8.87;7.93;;;17.50;99.90;;;;;;5020051;28;20443;-77
2023/06/12 03:42:03;;;;;;;8.93;8.20;;;17.50;99.90;;;;;;5018698;28;20555;-76
2023/06/12 03:44:33;;;;;;;9.00;8.27;;;17.50;99.90;;;;;;5018719;28;20443;-76
2023/06/12 03:47:03;;;;;;;9.17;8.47;;;17.50;99.90;;;;;;5019034;28;20458;-76
2023/06/12 03:49:31;;;;;;;8.70;8.07;;;17.50;99.90;;;;;;5019986;28;20451;-77
2023/06/12 03:51:59;;;;;;;9.80;9.00;;;17.50;99.90;;;;;;5020136;28;20479;-77
2023/06/12 03:54:27;;;;;;;9.37;8.57;;;17.50;99.90;;;;;;5034371;28;20446;-77
2023/06/12 03:56:55;;;;;;;9.40;8.70;;;17.50;99.90;;;;;;5027471;28;20527;-77
2023/06/12 03:59:25;;;;;;;9.03;8.37;;;17.50;99.90;;;;;;5019092;28;20479;-77
2023/06/12 04:01:58;;;;;;;9.90;8.93;;;17.50;99.90;;;;;;5024963;28;20469;-78
2023/06/12 04:04:33;;;;;;;9.53;8.73;;;17.50;99.90;;;;;;5036655;28;20454;-76
2023/06/12 04:07:06;;;;;;;9.27;8.50;;;17.50;99.90;;;;;;5035431;28;20525;-77
2023/06/12 04:09:34;;;;;;;9.73;8.77;;;17.50;99.90;;;;;;5034855;28;20485;-77
2023/06/12 04:12:02;;;;;;;9.77;9.07;;;17.50;99.90;;;;;;5035260;28;20474;-77
2023/06/12 04:14:34;;;;;;;9.70;8.90;;;17.40;99.90;;;;;;5035472;28;20455;-77
2023/06/12 04:17:03;;;;;;;8.47;7.87;;;17.40;99.90;;;;;;5033755;28;20434;-77
2023/06/12 04:19:34;;;;;;;9.57;8.50;;;17.40;99.90;;;;;;5033712;28;20474;-76
2023/06/12 04:22:01;;;;;;;8.40;7.70;;;17.40;99.90;;;;;;5034636;28;20472;-76
2023/06/12 04:24:34;;;;;;;9.27;8.43;;;17.50;99.90;;;;;;5034026;28;20453;-78
2023/06/12 04:27:09;;;;;;;8.10;7.60;;;17.50;99.90;;;;;;5034626;28;20458;-77
2023/06/12 04:29:40;;;;;;;9.03;8.30;;;17.50;99.90;;;;;;5034762;28;20469;-77
2023/06/12 04:32:08;;;;;;;8.90;8.27;;;17.50;99.90;;;;;;5034513;28;20528;-77
2023/06/12 04:34:39;;;;;;;9.33;8.53;;;17.50;99.90;;;;;;5033298;28;20439;-76
2023/06/12 04:37:09;;;;;;;9.57;7.70;;;17.50;99.90;;;;;;5034046;28;20470;-77
2023/06/12 04:39:39;;;;;;;9.40;8.60;;;17.60;99.90;;;;;;5033759;28;20907;-77
2023/06/12 04:42:10;;;;;;;9.53;8.83;;;17.70;99.90;;;;;;5034336;28;21027;-77
2023/06/12 04:44:40;;;;;;;8.80;8.07;;;17.80;99.90;;;;;;5034929;28;20906;-76
2023/06/12 04:47:11;;;;;;;9.30;8.53;;;17.90;99.90;;;;;;5035370;28;20447;-78
2023/06/12 04:49:40;;;;;;;8.73;8.13;;;18.00;99.90;;;;;;5036344;28;20513;-77
2023/06/12 04:52:08;;;;;;;9.73;9.00;;;18.10;99.90;;;;;;5037728;28;20462;-76
2023/06/12 04:54:36;;;;;;;9.37;8.57;;;18.20;99.90;;;;;;5039666;28;20453;-77
2023/06/12 04:57:07;;;;;;;9.23;8.50;;;18.30;99.90;;;;;;5040473;28;20454;-78
2023/06/12 04:59:38;;;;;;;9.13;8.20;;;18.40;99.90;;;;;;5040150;28;20508;-79
2023/06/12 05:02:08;;;;;;;9.10;8.20;;;18.50;99.90;;;;;;5039730;28;20505;-78
2023/06/12 05:04:37;;;;;;;9.17;8.33;;;18.50;99.90;;;;;;5042521;28;20822;-76
2023/06/12 05:07:06;;;;;;;9.77;8.77;;;18.60;99.90;;;;;;5042926;28;20903;-76
2023/06/12 05:09:33;;;;;;;10.57;8.40;;;18.70;99.90;;;;;;5042904;28;20450;-78
2023/06/12 05:12:02;;;;;;;9.60;8.90;;;18.70;99.90;;;;;;5043456;28;20486;-77
2023/06/12 05:14:30;;;;;;;8.90;8.20;;;18.80;99.90;;;;;;5043173;28;20816;-76
2023/06/12 05:16:58;;;;;;;9.70;8.67;;;18.90;99.90;;;;;;5040506;28;20458;-77
2023/06/12 05:19:26;;;;;;;8.87;8.17;;;19.00;99.90;;;;;;5038759;28;20534;-77
2023/06/12 05:21:54;;;;;;;9.43;8.53;;;18.80;99.90;;;;;;5039760;28;20453;-78
2023/06/12 05:24:21;;;;;;;9.00;8.40;;;19.10;99.90;;;;;;5039909;28;20458;-77
2023/06/12 05:26:52;;;;;;;9.37;8.63;;;19.20;99.90;;;;;;5039859;28;20443;-78
2023/06/12 05:29:19;;;;;;;8.77;8.17;;;19.20;99.90;;;;;;5043484;28;20418;-77
2023/06/12 05:31:47;;;;;;;8.00;7.50;;;19.20;99.90;;;;;;5044755;28;20494;-77
2023/06/12 05:34:15;;;;;;;9.07;8.37;;;19.30;99.90;;;;;;5045501;28;20477;-78
2023/06/12 05:36:44;;;;;;;7.70;7.20;;;19.40;99.90;;;;;;5046051;28;20451;-77
2023/06/12 05:39:12;;;;;;;8.67;7.97;;;19.40;99.90;;;;;;5046719;28;20474;-77
2023/06/12 05:41:40;;;;;;;8.50;7.80;;;19.60;99.90;;;;;;5047474;28;20494;-79
2023/06/12 05:44:10;;;;;;;8.37;7.87;;;19.50;99.90;;;;;;5043417;28;20516;-78
2023/06/12 05:46:38;;;;;;;8.70;8.00;;;19.60;99.90;;;;;;5042634;28;20454;-78
2023/06/12 05:49:06;;;;;;;9.00;8.20;;;19.60;99.90;;;;;;5043477;28;20446;-77
2023/06/12 05:51:35;;;;;;;9.30;8.33;;;19.70;99.90;;;;;;5042773;28;20996;-78
2023/06/12 05:54:04;;;;;;;9.10;8.20;;;19.80;99.90;;;;;;5045292;28;21034;-77
2023/06/12 05:56:34;;;;;;;8.83;8.03;;;19.90;99.90;;;;;;5049409;28;20486;-79
2023/06/12 05:59:02;;;;;;;8.33;7.73;;;20.10;99.90;;;;;;5044169;28;20475;-79
2023/06/12 06:01:31;;;;;;;8.87;8.20;;;20.20;99.90;;;;;;5037898;28;20828;-78
2023/06/12 06:03:59;;;;;;;8.50;7.80;;;20.30;99.90;;;;;;5037278;28;20813;-77
2023/06/12 06:06:27;;;;;;;9.03;8.30;;;20.40;99.90;;;;;;5038952;28;20458;-78
2023/06/12 06:08:55;;;;;;;8.40;7.90;;;20.40;99.90;;;;;;5041723;28;20442;-78
2023/06/12 06:11:24;;;;;;;8.90;8.17;;;20.50;99.90;;;;;;5045636;28;20471;-78
2023/06/12 06:13:52;;;;;;;8.93;8.03;;;20.60;99.90;;;;;;5044955;28;20938;-79
2023/06/12 06:16:20;;;;;;;9.17;8.40;;;20.70;99.90;;;;;;5045114;28;20446;-81
2023/06/12 06:18:47;;;;;;;8.73;7.93;;;20.70;99.90;;;;;;5046698;28;20537;-79
2023/06/12 06:21:17;;;;;;;8.70;8.10;;;20.80;99.90;;;;;;5045738;28;20470;-78
2023/06/12 06:23:45;;;;;;;9.07;8.00;;;20.80;99.90;;;;;;5045797;28;21061;-78
2023/06/12 06:26:13;;;;;;;9.90;9.00;;;20.90;99.90;;;;;;5043674;28;20489;-77
2023/06/12 06:28:42;;;;;;;9.30;8.50;;;21.00;99.90;;;;;;5045323;28;20443;-78
2023/06/12 06:31:11;;;;;;;9.93;9.13;;;21.00;99.90;;;;;;5046060;28;20446;-77
2023/06/12 06:33:38;;;;;;;9.23;8.33;;;21.10;99.90;;;;;;5048873;28;20442;-78
2023/06/12 06:36:07;;;;;;;9.07;8.37;;;21.10;99.90;;;;;;5048848;28;20451;-79
2023/06/12 06:38:34;;;;;;;9.97;9.07;;;21.20;99.90;;;;;;5048498;28;20565;-77
2023/06/12 06:41:06;;;;;;;14.53;8.50;;;21.20;99.90;;;;;;5048075;28;20690;-77
2023/06/12 06:43:34;;;;;;;8.73;7.80;;;21.30;99.90;;;;;;5046131;28;20455;-77
2023/06/12 06:46:04;;;;;;;9.67;8.87;;;21.40;99.90;;;;;;5049229;28;20442;-77
2023/06/12 06:48:32;;;;;;;8.53;7.73;;;21.60;99.90;;;;;;5048463;28;20458;-78
2023/06/12 06:51:02;;;;;;;11.13;8.10;;;21.60;99.90;;;;;;5046110;28;20446;-78
2023/06/12 06:53:31;;;;;;;9.53;8.73;;;21.70;99.90;;;;;;5045433;28;20955;-78
2023/06/12 06:56:05;;;;;;;10.90;7.90;;;21.70;99.90;;;;;;5039077;28;20922;-78
2023/06/12 06:58:37;;;;;;;8.23;7.63;;;21.80;99.90;;;;;;5040015;28;20474;-77
2023/06/12 07:01:17;;;;;;;9.10;8.30;;;21.90;99.90;;;;;;5037683;28;20516;-78
2023/06/12 07:03:45;;;;;;;8.70;8.00;;;21.90;99.90;;;;;;5036887;28;20458;-77
2023/06/12 07:06:18;;;;;;;9.20;8.50;;;21.60;99.90;;;;;;5036035;28;20455;-78
2023/06/12 07:08:46;;;;;;;9.63;8.83;;;22.10;99.90;;;;;;5036697;28;20926;-76
2023/06/12 07:11:23;;;;;;;8.97;8.37;;;22.00;99.90;;;;;;5040146;28;20568;-76
2023/06/12 07:13:54;;;;;;;8.30;7.77;;;22.20;99.90;;;;;;5039986;28;20449;-78
2023/06/12 07:16:25;;;;;;;9.27;8.43;;;22.40;99.90;;;;;;5039193;28;20845;-77
2023/06/12 07:18:53;;;;;;;9.27;8.57;;;22.40;99.90;;;;;;5037523;28;20501;-77
2023/06/12 07:21:26;;;;;;;8.90;7.97;;;22.50;99.90;;;;;;5057555;28;20520;-77
2023/06/12 07:23:58;;;;;;;8.17;7.43;;;22.60;99.90;;;;;;5059078;28;20450;-78
2023/06/12 07:26:27;;;;;;;8.90;8.27;;;22.70;99.90;;;;;;5057497;28;20453;-77
2023/06/12 07:29:10;;;;;;;8.97;8.20;;;22.70;99.90;;;;;;5058328;28;20538;-78
2023/06/12 07:31:42;;;;;;;8.20;7.60;;;22.90;99.90;;;;;;5058245;28;20461;-77
2023/06/12 07:34:29;;;;;;;8.80;8.20;;;23.00;99.90;;;;;;5056965;28;20454;-77
2023/06/12 07:37:07;;;;;;;9.33;8.63;;;23.20;99.90;;;;;;5058706;28;20458;-77
2023/06/12 07:39:36;;;;;;;8.20;7.70;;;23.20;99.90;;;;;;5059571;28;20473;-78
2023/06/12 07:42:08;;;;;;;9.67;8.80;;;23.10;99.90;;;;;;5056789;28;20500;-77
2023/06/12 07:44:40;;;;;;;7.67;7.17;;;23.20;99.90;;;;;;5058318;28;20458;-78
2023/06/12 07:47:42;;;;;;;8.03;7.43;;;23.30;99.90;;;;;;5057156;28;20508;-78
2023/06/12 07:50:23;;;;;;;8.70;7.80;;;23.40;99.90;;;;;;5062223;28;20491;-79
2023/06/12 07:52:53;;;;;;;8.57;7.97;;;23.50;99.90;;;;;;5059069;28;20461;-79
2023/06/12 07:55:32;;;;;;;8.57;7.80;;;23.70;99.90;;;;;;5061465;28;20426;-81
2023/06/12 07:58:04;;;;;;;8.67;7.80;;;23.80;99.90;;;;;;5063873;28;20960;-76
2023/06/12 08:00:49;;;;;;;9.33;8.50;;;23.90;99.90;;;;;;5058859;28;20473;-76
2023/06/12 08:03:38;;;;;;;8.77;8.17;;;23.90;99.90;;;;;;5057345;28;21006;-79
2023/06/12 08:06:13;;;;;;;9.40;8.80;;;23.70;99.90;;;;;;5057203;28;20456;-77
2023/06/12 08:08:52;;;;;;;8.63;8.13;;;23.70;99.90;;;;;;5057988;28;20994;-78
2023/06/12 08:11:24;;;;;;;8.73;8.13;;;23.80;99.90;;;;;;5057107;28;20493;-76
2023/06/12 08:13:56;;;;;;;9.20;8.60;;;23.60;99.90;;;;;;5057995;28;20537;-77
2023/06/12 08:16:25;;;;;;;8.20;7.60;;;23.70;99.90;;;;;;5059157;28;20533;-76
2023/06/12 08:19:01;;;;;;;8.67;7.97;;;23.60;99.90;;;;;;5057008;28;20489;-77
2023/06/12 08:21:29;;;;;;;7.93;7.30;;;24.00;99.90;;;;;;5039660;28;20496;-77
2023/06/12 08:23:57;;;;;;;7.43;6.93;;;24.20;99.90;;;;;;5036768;28;20427;-77
2023/06/12 08:26:48;;;;;;;7.57;6.97;;;24.30;99.90;;;;;;5038433;28;20465;-77
2023/06/12 08:29:17;;;;;;;7.40;6.90;;;24.50;99.90;;;;;;5045479;28;20448;-76
2023/06/12 08:31:48;;;;;;;7.93;7.33;;;24.60;99.90;;;;;;5041727;28;20525;-79
2023/06/12 08:34:24;;;;;;;8.30;7.60;;;24.60;99.90;;;;;;5041622;28;20445;-77
2023/06/12 08:36:56;;;;;;;7.97;7.27;;;24.60;99.90;;;;;;5041312;28;20446;-78
2023/06/12 08:39:29;;;;;;;7.33;6.80;;;24.70;99.90;;;;;;5042063;28;20479;-78
2023/06/12 08:42:07;;;;;;;7.10;6.60;;;24.90;99.90;;;;;;5041893;28;20467;-78
2023/06/12 08:44:46;;;;;;;7.13;6.53;;;24.90;99.90;;;;;;5042397;28;20508;-77
2023/06/12 08:47:19;;;;;;;7.53;6.80;;;25.10;99.90;;;;;;5039175;28;20454;-78
2023/06/12 08:49:48;;;;;;;6.97;6.37;;;25.10;99.90;;;;;;5032454;28;20466;-77
2023/06/12 08:52:18;;;;;;;7.20;6.70;;;25.30;99.90;;;;;;5034860;28;20474;-77
2023/06/12 08:54:50;;;;;;;6.57;6.17;;;25.50;99.90;;;;;;5035423;28;20419;-77
2023/06/12 08:57:29;;;;;;;6.90;6.40;;;25.80;99.90;;;;;;5037281;28;20928;-77
2023/06/12 09:00:10;;;;;;;7.67;6.33;;;25.80;99.90;;;;;;5050088;28;20477;-78
2023/06/12 09:02:56;;;;;;;6.73;6.23;;;25.70;99.90;;;;;;5056005;28;20465;-78
2023/06/12 09:10:59;;;;;;;6.83;6.20;;;26.20;99.90;;;;;;5060041;28;20422;-79
2023/06/12 09:13:44;;;;;;;6.83;6.23;;;26.30;98.80;;;;;;5056787;28;20498;-78
2023/06/12 09:16:15;;;;;;;7.60;7.00;;;26.20;98.20;;;;;;5051458;28;20452;-78
2023/06/12 09:18:54;;;;;;;10.83;6.67;;;26.50;98.20;;;;;;5059110;28;20450;-79
2023/06/12 09:21:25;;;;;;;6.83;6.30;;;26.50;97.70;;;;;;5043233;28;20489;-80
2023/06/12 09:24:09;;;;;;;6.53;6.03;;;26.70;97.10;;;;;;5043157;28;20465;-79
2023/06/12 09:26:39;;;;;;;6.57;6.17;;;26.90;95.60;;;;;;5043515;28;20446;-80
2023/06/12 09:29:07;;;;;;;7.50;6.90;;;27.10;95.50;;;;;;5044285;28;20822;-78
2023/06/12 09:31:36;;;;;;;12.63;11.40;;;27.40;94.80;;;;;;5045584;28;20494;-78
2023/06/12 09:34:04;;;;;;;7.23;6.63;;;27.60;94.00;;;;;;5043975;28;20489;-80
2023/06/12 09:36:35;;;;;;;6.57;6.17;;;27.70;92.80;;;;;;5043396;28;20486;-81
2023/06/12 09:39:06;;;;;;;6.73;6.23;;;27.70;92.50;;;;;;5038276;28;20450;-81
2023/06/12 09:41:36;;;;;;;6.80;6.30;;;28.00;92.30;;;;;;5038429;28;20628;-81
2023/06/12 09:44:09;;;;;;;7.10;6.50;;;28.30;91.10;;;;;;5038101;28;20517;-79
2023/06/12 09:46:37;;;;;;;7.00;6.30;;;28.00;89.60;;;;;;5038442;28;20554;-78
2023/06/12 09:49:12;;;;;;;6.40;6.00;;;28.10;90.00;;;;;;5039746;28;20427;-80
2023/06/12 09:52:02;;;;;;;7.00;6.43;;;28.00;89.70;;;;;;5038382;28;20475;-79
2023/06/12 09:54:32;;;;;;;7.03;6.53;;;28.10;88.90;;;;;;5037882;28;20573;-79
2023/06/12 09:57:06;;;;;;;7.00;6.07;;;28.70;89.50;;;;;;5038027;28;20436;-79
2023/06/12 09:59:37;;;;;;;6.47;5.97;;;29.00;86.40;;;;;;5037801;28;20520;-79
2023/06/12 10:02:11;;;;;;;7.23;6.20;;;29.20;83.10;;;;;;5037507;28;20478;-78
2023/06/12 10:04:43;;;;;;;7.47;6.97;;;29.10;83.10;;;;;;5036883;28;20443;-78
2023/06/12 10:07:17;;;;;;;7.33;6.30;;;29.20;83.10;;;;;;5038318;28;20427;-79
2023/06/12 10:09:48;;;;;;;6.17;5.77;;;29.30;82.20;;;;;;5037180;28;20483;-79
2023/06/12 10:12:17;;;;;;;7.33;6.77;;;29.60;80.90;;;;;;5038334;28;20481;-78
2023/06/12 10:14:50;;;;;;;6.80;6.40;;;29.60;80.40;;;;;;5036228;28;21016;-80
2023/06/12 10:17:22;;;;;;;6.73;6.23;;;30.00;78.50;;;;;;5037322;28;20546;-79
2023/06/12 10:19:58;;;;;;;6.30;5.90;;;30.30;76.90;;;;;;5040364;28;20463;-80
2023/06/12 10:22:31;;;;;;;7.47;6.77;;;30.20;77.30;;;;;;5054864;28;20549;-80
2023/06/12 10:25:11;;;;;;;7.13;6.63;;;29.30;76.30;;;;;;5056635;28;20500;-79
2023/06/12 10:27:41;;;;;;;6.80;6.30;;;29.70;75.70;;;;;;5058071;28;20451;-78
2023/06/12 10:30:12;;;;;;;6.17;5.77;;;29.80;76.00;;;;;;5059196;28;20849;-79
2023/06/12 10:32:45;;;;;;;6.50;5.90;;;29.60;75.70;;;;;;5057781;28;20558;-80
2023/06/12 10:35:14;;;;;;;5.80;5.50;;;30.20;74.50;;;;;;5058433;28;20454;-79
2023/06/12 10:37:48;;;;;;;6.63;6.03;;;30.10;72.10;;;;;;5057521;28;20457;-78
2023/06/12 10:40:20;;;;;;;6.43;5.80;;;29.90;73.80;;;;;;5058878;28;20467;-79
2023/06/12 10:42:51;;;;;;;6.77;6.27;;;29.70;73.60;;;;;;5060176;28;20470;-79
2023/06/12 10:45:21;;;;;;;6.73;6.20;;;30.50;72.90;;;;;;5063490;28;20497;-80
2023/06/12 10:48:17;;;;;;;6.43;5.93;;;30.30;73.10;;;;;;5063768;28;20446;-77
2023/06/12 10:50:49;;;;;;;6.27;5.87;;;30.00;71.40;;;;;;5066119;28;20470;-79
2023/06/12 10:53:26;;;;;;;6.10;5.60;;;29.80;71.90;;;;;;5065514;28;20456;-78
2023/06/12 10:56:02;;;;;;;6.33;5.87;;;30.00;72.70;;;;;;5064369;28;20499;-79
2023/06/12 10:58:37;;;;;;;7.17;6.57;;;29.50;71.70;;;;;;5057675;28;20864;-78
2023/06/12 11:01:10;;;;;;;7.00;6.30;;;29.60;72.20;;;;;;5055369;28;20473;-80
2023/06/12 11:03:43;;;;;;;7.20;6.50;;;30.30;70.90;;;;;;5054130;28;20455;-78
2023/06/12 11:06:15;;;;;;;6.67;6.17;;;30.60;69.40;;;;;;5054627;28;20501;-79
2023/06/12 11:08:45;;;;;;;6.47;5.97;;;31.00;68.30;;;;;;5055860;28;20461;-78
2023/06/12 11:11:15;;;;;;;6.13;5.73;;;31.10;67.80;;;;;;5058675;28;20436;-79
2023/06/12 11:13:43;;;;;;;7.60;7.00;;;29.90;69.00;;;;;;5058665;28;20461;-79
2023/06/12 11:16:14;;;;;;;6.80;6.30;;;29.20;71.80;;;;;;5059300;28;20509;-77
2023/06/12 11:18:42;;;;;;;6.30;5.87;;;29.90;69.80;;;;;;5060031;28;20473;-79
2023/06/12 11:21:11;;;;;;;8.03;6.23;;;30.10;68.60;;;;;;5060044;28;20534;-79
2023/06/12 11:23:40;;;;;;;6.20;5.70;;;30.40;68.40;;;;;;5060159;28;20452;-79
2023/06/12 11:26:20;;;;;;;6.50;5.93;;;30.30;67.80;;;;;;5059962;28;20451;-78
2023/06/12 11:28:49;;;;;;;6.30;5.80;;;30.40;66.90;;;;;;5061889;28;20463;-78
2023/06/12 11:31:45;;;;;;;6.33;5.83;;;30.70;67.20;;;;;;5063920;28;20509;-79
2023/06/12 11:34:15;;;;;;;6.30;5.90;;;30.90;66.60;;;;;;5058079;28;21028;-79
2023/06/12 11:36:46;;;;;;;5.80;5.40;;;31.10;63.80;;;;;;5063932;28;20526;-78
2023/06/12 11:39:18;;;;;;;5.77;5.47;;;31.50;63.60;;;;;;5063103;28;20465;-78
2023/06/12 11:41:54;;;;;;;6.03;5.70;;;31.80;62.50;;;;;;5061093;28;20480;-79
2023/06/12 11:44:24;;;;;;;5.83;5.43;;;32.00;60.40;;;;;;5060799;28;20455;-80
2023/06/12 11:46:59;;;;;;;5.70;5.20;;;32.00;59.00;;;;;;5061020;28;20474;-78
2023/06/12 11:49:31;;;;;;;8.13;5.00;;;32.20;59.30;;;;;;5059555;28;20463;-81
2023/06/12 11:52:02;;;;;;;6.20;5.70;;;31.90;58.80;;;;;;5060120;28;20479;-79
2023/06/12 11:54:56;;;;;;;5.63;5.13;;;31.70;59.10;;;;;;5059901;28;20436;-80
2023/06/12 11:57:30;;;;;;;6.03;5.53;;;31.70;59.20;;;;;;5059578;28;20462;-78
2023/06/12 12:00:08;;;;;;;5.73;5.33;;;31.70;58.30;;;;;;5059722;28;20470;-79
2023/06/12 12:02:39;;;;;;;6.93;5.50;;;31.90;58.90;;;;;;5059882;28;20889;-79
2023/06/12 12:05:11;;;;;;;5.97;5.57;;;32.00;58.40;;;;;;5058682;28;20454;-80
2023/06/12 12:07:40;;;;;;;5.50;5.20;;;32.30;58.10;;;;;;5059507;28;20455;-79
2023/06/12 12:10:10;;;;;;;5.27;4.97;;;32.40;57.70;;;;;;5060834;28;20456;-79
2023/06/12 12:12:44;;;;;;;7.47;5.30;;;32.40;57.30;;;;;;5059702;28;20567;-80
2023/06/12 12:15:12;;;;;;;6.20;5.60;;;32.20;56.70;;;;;;5057163;28;20535;-80
2023/06/12 12:17:40;;;;;;;6.03;5.57;;;32.00;57.00;;;;;;5062505;28;20451;-77
2023/06/12 12:20:13;;;;;;;5.73;5.23;;;32.40;56.70;;;;;;5064801;28;20494;-79
2023/06/12 12:22:42;;;;;;;6.13;5.63;;;32.40;55.90;;;;;;5062951;28;20494;-80
2023/06/12 12:25:20;;;;;;;5.77;5.37;;;32.50;55.00;;;;;;5063364;28;20476;-78
2023/06/12 12:27:49;;;;;;;6.70;5.77;;;32.60;55.40;;;;;;5062674;28;20550;-79
2023/06/12 12:30:21;;;;;;;6.07;5.47;;;32.50;54.80;;;;;;5062914;28;20454;-80
2023/06/12 12:33:04;;;;;;;7.40;6.70;;;32.80;55.10;;;;;;5062342;28;20487;-81
2023/06/12 12:35:32;;;;;;;5.27;4.87;;;33.00;54.50;;;;;;5062758;28;20460;-79
2023/06/12 12:38:03;;;;;;;5.90;5.50;;;32.90;54.30;;;;;;5062815;28;20463;-80
2023/06/12 12:40:30;;;;;;;5.77;5.30;;;32.50;55.00;;;;;;5066477;28;20505;-80
2023/06/12 12:43:11;;;;;;;7.07;5.70;;;32.70;54.90;;;;;;5065015;28;20471;-78
2023/06/12 12:45:51;;;;;;;6.50;6.00;;;32.70;54.10;;;;;;5064166;28;20899;-78
2023/06/12 12:48:20;;;;;;;5.77;5.27;;;32.50;54.90;;;;;;5063671;28;20455;-78
2023/06/12 12:50:51;;;;;;;5.90;5.50;;;32.80;53.60;;;;;;5063875;28;20846;-78
2023/06/12 12:53:19;;;;;;;6.13;5.60;;;32.70;52.80;;;;;;5063953;28;20458;-79
2023/06/12 12:55:50;;;;;;;5.30;4.90;;;32.50;52.90;;;;;;5064399;28;20474;-80
2023/06/12 12:58:23;;;;;;;6.10;5.60;;;33.00;53.30;;;;;;5064209;28;20495;-79
2023/06/12 13:00:50;;;;;;;8.17;5.30;;;32.90;51.50;;;;;;5064209;28;20502;-79
2023/06/12 13:03:27;;;;;;;6.10;5.63;;;33.00;51.80;;;;;;5042379;28;20497;-81
2023/06/12 13:09:03;;;;;;;5.73;5.33;;;32.60;51.40;;;;;;5158218;27;20790;-79
2023/06/12 13:11:31;;;;;;;6.30;5.73;;;32.60;52.50;;;;;;5153413;27;20468;-79
2023/06/12 13:13:59;;;;;;;5.83;5.43;;;32.70;53.10;;;;;;5142749;27;20445;-79
2023/06/12 13:16:27;;;;;;;5.73;5.33;;;33.00;52.20;;;;;;5137692;28;20433;-80
2023/06/12 13:18:55;;;;;;;5.87;5.40;;;33.10;52.20;;;;;;5131037;28;20459;-81
2023/06/12 13:21:22;;;;;;;6.07;5.73;;;33.50;52.00;;;;;;5136916;27;20458;-80